createdAt,value
2019-03-11T00:01:55.170Z,85.24
2019-03-11T00:04:43.019Z,84.97
2019-03-11T00:07:31.904Z,84.47
2019-03-11T00:10:26.287Z,84.17
2019-03-11T00:13:14.624Z,84.59
2019-03-11T00:16:01.485Z,85.26
2019-03-11T00:18:48.010Z,85.53
2019-03-11T00:21:35.326Z,85.61
2019-03-11T00:24:22.659Z,85.53
2019-03-11T00:27:09.067Z,85.18
2019-03-11T00:29:56.517Z,85.02
2019-03-11T00:32:42.922Z,84.67
2019-03-11T00:35:29.471Z,84.45
2019-03-11T00:38:16.686Z,84.65
2019-03-11T00:41:03.470Z,84.43
2019-03-11T00:43:50.368Z,84.60
2019-03-11T00:46:37.469Z,84.49
2019-03-11T00:49:24.306Z,84.74
2019-03-11T00:52:10.794Z,84.16
2019-03-11T00:54:57.566Z,84.16
2019-03-11T00:57:44.278Z,84.14
2019-03-11T01:00:35.602Z,83.85
2019-03-11T01:03:22.429Z,83.85
2019-03-11T01:06:08.902Z,83.37
2019-03-11T01:08:55.491Z,82.41
2019-03-11T01:11:42.319Z,82.41
2019-03-11T01:14:29.306Z,82.31
2019-03-11T01:17:16.073Z,81.73
2019-03-11T01:20:02.716Z,82.07
2019-03-11T01:22:49.202Z,81.39
2019-03-11T01:25:36.175Z,81.39
2019-03-11T01:28:23.023Z,82.14
2019-03-11T01:31:09.423Z,83.55
2019-03-11T01:33:56.443Z,84.79
2019-03-11T01:36:42.924Z,84.79
2019-03-11T01:39:29.285Z,85.17
2019-03-11T01:42:16.012Z,84.99
2019-03-11T01:45:02.783Z,85.63
2019-03-11T01:47:49.280Z,85.92
2019-03-11T01:50:36.365Z,86.59
2019-03-11T01:53:22.864Z,86.97
2019-03-11T01:56:09.582Z,88.13
2019-03-11T01:58:56.662Z,88.13
2019-03-11T02:01:43.233Z,88.91
2019-03-11T02:04:29.866Z,89.57
2019-03-11T02:07:16.854Z,89.35
2019-03-11T02:10:04.332Z,89.35
2019-03-11T02:12:50.807Z,89.92
2019-03-11T02:15:38.641Z,89.92
2019-03-11T02:18:25.670Z,89.86
2019-03-11T02:21:12.665Z,89.86
2019-03-11T02:23:59.507Z,89.82
2019-03-11T02:26:45.794Z,89.47
2019-03-11T02:29:32.349Z,89.61
2019-03-11T02:32:19.696Z,89.17
2019-03-11T02:35:06.286Z,88.87
2019-03-11T02:37:53.162Z,87.70
2019-03-11T02:40:40.216Z,86.72
2019-03-11T02:43:26.536Z,86.18
2019-03-11T02:46:13.745Z,85.94
2019-03-11T02:49:00.581Z,85.69
2019-03-11T02:51:47.097Z,85.57
2019-03-11T02:54:34.150Z,85.82
2019-03-11T02:57:21.448Z,85.94
2019-03-11T03:00:09.548Z,86.02
2019-03-11T03:03:06.016Z,86.28
2019-03-11T03:05:57.729Z,86.12
2019-03-11T03:08:44.333Z,85.91
2019-03-11T03:11:30.932Z,86.65
2019-03-11T03:14:17.707Z,86.77
2019-03-11T03:17:04.881Z,86.96
2019-03-11T03:19:52.776Z,86.78
2019-03-11T03:22:39.164Z,86.62
2019-03-11T03:25:33.719Z,86.84
2019-03-11T03:28:14.777Z,86.81
2019-03-11T03:31:01.026Z,86.87
2019-03-11T03:33:47.781Z,87.21
2019-03-11T03:36:34.505Z,86.70
2019-03-11T03:39:20.979Z,86.69
2019-03-11T03:42:12.763Z,86.85
2019-03-11T03:45:39.233Z,86.59
2019-03-11T03:48:26.571Z,86.17
2019-03-11T03:51:14.087Z,86.17
2019-03-11T03:54:00.550Z,85.96
2019-03-11T03:56:47.284Z,85.96
2019-03-11T03:59:34.176Z,86.21
2019-03-11T04:02:21.026Z,86.21
2019-03-11T04:05:08.625Z,86.39
2019-03-11T04:07:55.544Z,86.25
2019-03-11T04:10:42.387Z,86.09
2019-03-11T04:13:28.968Z,86.54
2019-03-11T04:16:15.590Z,86.15
2019-03-11T04:19:02.827Z,85.98
2019-03-11T04:21:49.448Z,86.17
2019-03-11T04:24:36.508Z,86.34
2019-03-11T04:27:22.928Z,86.14
2019-03-11T04:30:12.476Z,86.37
2019-03-11T04:32:59.269Z,86.33
2019-03-11T04:35:46.016Z,86.33
2019-03-11T04:38:32.415Z,86.43
2019-03-11T04:41:19.531Z,86.04
2019-03-11T04:44:06.896Z,85.58
2019-03-11T04:46:54.104Z,85.67
2019-03-11T04:49:41.032Z,86.03
2019-03-11T04:52:28.707Z,85.81
2019-03-11T04:55:15.802Z,86.21
2019-03-11T04:58:02.956Z,85.87
2019-03-11T05:00:49.800Z,86.00
2019-03-11T05:03:36.435Z,85.73
2019-03-11T05:06:23.584Z,85.90
2019-03-11T05:09:10.675Z,85.81
2019-03-11T05:11:58.123Z,85.61
2019-03-11T05:14:45.519Z,85.29
2019-03-11T05:17:32.377Z,85.17
2019-03-11T05:20:18.908Z,85.17
2019-03-11T05:23:06.028Z,84.70
2019-03-11T05:25:55.714Z,84.60
2019-03-11T05:28:42.744Z,84.21
2019-03-11T05:31:29.691Z,83.90
2019-03-11T05:34:18.503Z,83.92
2019-03-11T05:37:05.187Z,83.73
2019-03-11T05:39:52.026Z,83.70
2019-03-11T05:42:38.620Z,83.21
2019-03-11T05:45:25.373Z,83.18
2019-03-11T05:48:12.324Z,83.25
2019-03-11T05:50:58.832Z,83.83
2019-03-11T05:53:45.668Z,83.74
2019-03-11T05:56:32.900Z,83.41
2019-03-11T05:59:19.840Z,83.49
2019-03-11T06:02:07.533Z,84.00
2019-03-11T06:04:54.538Z,83.87
2019-03-11T06:07:42.595Z,84.28
2019-03-11T06:10:30.104Z,84.27
2019-03-11T06:13:16.737Z,84.27
2019-03-11T06:16:07.781Z,84.42
2019-03-11T06:18:54.936Z,84.28
2019-03-11T06:22:01.000Z,84.26
2019-03-11T06:24:48.485Z,84.54
2019-03-11T06:27:35.002Z,84.16
2019-03-11T06:30:21.716Z,83.61
2019-03-11T06:33:08.548Z,83.24
2019-03-11T06:35:57.732Z,82.95
2019-03-11T06:38:44.397Z,82.67
2019-03-11T06:41:32.545Z,81.83
2019-03-11T06:44:21.965Z,81.51
2019-03-11T06:47:08.505Z,82.16
2019-03-11T06:49:59.220Z,82.89
2019-03-11T06:52:45.761Z,85.34
2019-03-11T06:55:33.160Z,86.14
2019-03-11T06:58:20.262Z,85.84
2019-03-11T07:01:08.187Z,86.33
2019-03-11T07:03:55.763Z,87.10
2019-03-11T07:06:42.803Z,87.11
2019-03-11T07:09:30.076Z,87.24
2019-03-11T07:12:17.283Z,86.78
2019-03-11T07:15:12.767Z,86.93
2019-03-11T07:18:07.233Z,86.44
2019-03-11T07:20:56.449Z,83.58
2019-03-11T07:23:43.626Z,83.58
2019-03-11T07:26:31.973Z,83.86
2019-03-11T07:29:18.730Z,83.86
2019-03-11T07:32:05.527Z,85.01
2019-03-11T07:34:52.354Z,85.21
2019-03-11T07:37:41.210Z,85.94
2019-03-11T07:40:30.058Z,85.87
2019-03-11T07:43:15.599Z,86.24
2019-03-11T07:46:02.302Z,86.35
2019-03-11T07:48:48.921Z,86.08
2019-03-11T07:51:38.818Z,86.02
2019-03-11T07:54:35.545Z,85.98
2019-03-11T07:57:13.606Z,86.24
2019-03-11T08:00:00.686Z,86.95
2019-03-11T08:02:47.304Z,86.95
2019-03-11T08:05:34.043Z,87.42
2019-03-11T08:08:24.228Z,87.66
2019-03-11T08:11:11.828Z,87.50
2019-03-11T08:13:59.147Z,87.61
2019-03-11T08:16:47.213Z,87.31
2019-03-11T08:19:34.057Z,86.99
2019-03-11T08:22:20.866Z,87.19
2019-03-11T08:25:08.304Z,86.90
2019-03-11T08:27:54.903Z,87.00
2019-03-11T08:30:44.883Z,86.79
2019-03-11T08:33:31.715Z,86.05
2019-03-11T08:36:18.399Z,85.40
2019-03-11T08:39:09.260Z,86.05
2019-03-11T08:41:59.307Z,85.95
2019-03-11T08:44:45.820Z,87.10
2019-03-11T08:47:32.627Z,88.26
2019-03-11T08:50:19.864Z,89.23
2019-03-11T08:53:06.435Z,89.23
2019-03-11T08:55:54.625Z,89.43
2019-03-11T08:58:41.761Z,89.53
2019-03-11T09:01:30.832Z,89.54
2019-03-11T09:04:17.247Z,89.41
2019-03-11T09:07:04.060Z,89.50
2019-03-11T09:09:50.760Z,89.68
2019-03-11T09:12:40.979Z,89.68
2019-03-11T09:15:27.647Z,89.82
2019-03-11T09:18:13.978Z,89.74
2019-03-11T09:21:04.824Z,90.54
2019-03-11T09:23:51.420Z,90.98
2019-03-11T09:26:39.246Z,91.24
2019-03-11T09:29:25.647Z,90.97
2019-03-11T09:32:13.868Z,91.19
2019-03-11T09:35:00.532Z,91.35
2019-03-11T09:37:47.103Z,90.86
2019-03-11T09:40:33.987Z,90.33
2019-03-11T09:43:22.183Z,89.76
2019-03-11T09:46:08.603Z,89.60
2019-03-11T09:48:55.772Z,89.59
2019-03-11T09:51:43.588Z,89.60
2019-03-11T09:54:30.577Z,89.69
2019-03-11T09:57:18.459Z,89.61
2019-03-11T10:00:08.312Z,90.24
2019-03-11T10:02:54.642Z,90.26
2019-03-11T10:05:41.565Z,90.13
2019-03-11T10:08:28.256Z,90.26
2019-03-11T10:11:15.087Z,90.32
2019-03-11T10:14:02.800Z,90.33
2019-03-11T10:16:50.544Z,90.48
2019-03-11T10:19:37.217Z,90.41
2019-03-11T10:22:23.799Z,90.34
2019-03-11T10:25:10.897Z,88.97
2019-03-11T10:27:57.767Z,88.97
2019-03-11T10:30:44.584Z,89.35
2019-03-11T10:33:31.148Z,88.95
2019-03-11T10:36:21.222Z,88.51
2019-03-11T10:39:08.415Z,88.80
2019-03-11T10:41:54.563Z,88.75
2019-03-11T10:44:41.704Z,89.19
2019-03-11T10:47:28.368Z,89.17
2019-03-11T10:50:14.848Z,88.02
2019-03-11T10:53:01.829Z,88.83
2019-03-11T10:55:48.240Z,88.28
2019-03-11T10:58:42.889Z,88.77
2019-03-11T11:01:29.243Z,90.02
2019-03-11T11:04:15.959Z,89.80
2019-03-11T11:07:03.075Z,89.16
2019-03-11T11:09:49.612Z,89.20
2019-03-11T11:12:37.305Z,88.60
2019-03-11T11:15:26.107Z,87.27
2019-03-11T11:18:13.165Z,86.60
2019-03-11T11:20:59.728Z,87.27
2019-03-11T11:23:46.838Z,87.17
2019-03-11T11:26:38.656Z,87.13
2019-03-11T11:29:25.020Z,87.76
2019-03-11T11:32:11.445Z,86.13
2019-03-11T11:34:58.580Z,84.82
2019-03-11T11:37:45.149Z,84.67
2019-03-11T11:40:31.424Z,85.17
2019-03-11T11:43:17.871Z,85.49
2019-03-11T11:46:05.002Z,85.72
2019-03-11T11:48:51.659Z,85.84
2019-03-11T11:51:38.653Z,85.94
2019-03-11T11:54:25.490Z,85.69
2019-03-11T11:57:11.677Z,85.14
2019-03-11T11:59:59.844Z,85.24
2019-03-11T12:02:46.327Z,85.44
2019-03-11T12:05:32.434Z,85.14
2019-03-11T12:08:18.955Z,85.04
2019-03-11T12:11:05.728Z,86.01
2019-03-11T12:13:51.987Z,85.63
2019-03-11T12:16:38.233Z,85.43
2019-03-11T12:19:25.218Z,83.66
2019-03-11T12:22:13.095Z,82.38
2019-03-11T12:24:59.781Z,81.95
2019-03-11T12:27:53.559Z,82.82
2019-03-11T12:30:34.854Z,83.69
2019-03-11T12:33:21.692Z,84.07
2019-03-11T12:36:09.461Z,84.86
2019-03-11T12:38:59.249Z,85.70
2019-03-11T12:41:45.667Z,86.13
2019-03-11T12:44:32.413Z,85.77
2019-03-11T12:47:21.307Z,87.09
2019-03-11T12:50:10.825Z,87.47
2019-03-11T12:52:57.373Z,88.43
2019-03-11T12:55:43.678Z,88.20
2019-03-11T12:58:40.799Z,87.67
2019-03-11T13:01:18.060Z,87.18
2019-03-11T13:04:04.542Z,87.69
2019-03-11T13:06:51.414Z,86.74
2019-03-11T13:09:37.618Z,86.59
2019-03-11T13:12:24.087Z,84.46
2019-03-11T13:15:10.402Z,84.21
2019-03-11T13:18:18.519Z,85.42
2019-03-11T13:21:09.078Z,86.67
2019-03-11T13:23:55.436Z,87.15
2019-03-11T13:26:42.873Z,88.04
2019-03-11T13:29:29.492Z,88.08
2019-03-11T13:32:16.747Z,88.72
2019-03-11T13:35:03.757Z,88.96
2019-03-11T13:37:50.128Z,89.06
2019-03-11T13:40:36.386Z,88.07
2019-03-11T13:43:24.581Z,87.78
2019-03-11T13:46:13.971Z,87.02
2019-03-11T13:49:00.875Z,86.28
2019-03-11T13:51:48.907Z,86.03
2019-03-11T13:54:35.718Z,83.07
2019-03-11T13:57:22.455Z,83.51
2019-03-11T14:00:09.659Z,81.91
2019-03-11T14:02:57.287Z,81.78
2019-03-11T14:05:44.259Z,82.01
2019-03-11T14:08:30.888Z,81.87
2019-03-11T14:11:20.161Z,80.64
2019-03-11T14:14:06.874Z,80.23
2019-03-11T14:16:58.191Z,79.41
2019-03-11T14:19:44.632Z,80.35
2019-03-11T14:22:31.681Z,78.75
2019-03-11T14:25:17.966Z,76.83
2019-03-11T14:28:04.467Z,77.04
2019-03-11T14:30:51.483Z,78.62
2019-03-11T14:33:38.108Z,78.93
2019-03-11T14:36:33.668Z,79.66
2019-03-11T14:39:28.248Z,80.91
2019-03-11T14:42:16.102Z,79.01
2019-03-11T14:45:04.259Z,77.55
2019-03-11T14:47:50.883Z,77.71
2019-03-11T14:50:37.475Z,77.31
2019-03-11T14:53:27.564Z,75.61
2019-03-11T14:56:14.007Z,77.40
2019-03-11T14:59:00.636Z,76.69
2019-03-11T15:01:47.374Z,77.65
2019-03-11T15:04:34.506Z,76.88
2019-03-11T15:07:20.512Z,78.53
2019-03-11T15:10:08.267Z,76.30
2019-03-11T15:12:54.926Z,76.64
2019-03-11T15:15:41.450Z,78.05
2019-03-11T15:18:31.076Z,78.31
2019-03-11T15:21:17.534Z,79.17
2019-03-11T15:24:03.964Z,79.45
2019-03-11T15:26:59.352Z,80.33
2019-03-11T15:29:54.201Z,80.67
2019-03-11T15:32:42.403Z,81.99
2019-03-11T15:35:29.602Z,82.70
2019-03-11T15:38:15.924Z,84.28
2019-03-11T15:41:02.775Z,85.64
2019-03-11T15:43:51.585Z,86.55
2019-03-11T15:46:39.591Z,87.66
2019-03-11T15:49:27.956Z,87.97
2019-03-11T15:52:14.756Z,88.03
2019-03-11T15:55:03.604Z,88.96
2019-03-11T15:57:50.357Z,89.52
2019-03-11T16:04:39.786Z,89.34
2019-03-11T16:07:26.114Z,88.84
2019-03-11T16:10:17.139Z,88.63
2019-03-11T16:13:01.842Z,88.02
2019-03-11T16:15:48.216Z,87.73
2019-03-11T16:18:35.345Z,87.63
2019-03-11T16:21:22.046Z,87.83
2019-03-11T16:24:08.556Z,88.17
2019-03-11T16:26:55.469Z,88.64
2019-03-11T16:29:42.139Z,88.80
2019-03-11T16:32:36.875Z,89.12
2019-03-11T16:35:21.480Z,89.39
2019-03-11T16:38:10.624Z,89.45
2019-03-11T16:40:57.728Z,89.29
2019-03-11T16:43:44.631Z,89.32
2019-03-11T16:46:30.761Z,90.32
2019-03-11T16:49:18.363Z,91.02
2019-03-11T16:52:04.692Z,91.36
2019-03-11T16:54:51.527Z,91.31
2019-03-11T16:57:38.663Z,91.38
2019-03-11T17:00:31.050Z,91.46
2019-03-11T17:03:18.071Z,91.53
2019-03-11T17:06:05.414Z,91.76
2019-03-11T17:08:51.934Z,92.00
2019-03-11T17:11:52.896Z,92.62
2019-03-11T17:14:40.037Z,92.72
2019-03-11T17:17:26.707Z,92.96
2019-03-11T17:20:16.065Z,92.78
2019-03-11T17:23:10.048Z,92.66
2019-03-11T17:25:56.579Z,92.54
2019-03-11T17:28:52.358Z,92.14
2019-03-11T17:31:58.527Z,92.30
2019-03-11T17:34:46.181Z,92.00
2019-03-11T17:37:32.959Z,92.17
2019-03-11T17:40:22.147Z,92.14
2019-03-11T17:43:10.787Z,91.60
2019-03-11T17:45:57.926Z,91.72
2019-03-11T17:48:44.645Z,91.93
2019-03-11T17:51:31.873Z,92.03
2019-03-11T17:54:18.380Z,92.10
2019-03-11T17:57:08.303Z,92.26
2019-03-11T17:59:57.261Z,92.08
2019-03-11T18:02:43.923Z,92.10
2019-03-11T18:05:32.847Z,92.09
2019-03-11T18:08:23.093Z,91.54
2019-03-11T18:11:10.011Z,91.48
2019-03-11T18:13:56.412Z,91.34
2019-03-11T18:16:42.953Z,91.27
2019-03-11T18:19:29.843Z,91.04
2019-03-11T18:22:17.481Z,90.63
2019-03-11T18:25:04.322Z,90.80
2019-03-11T18:27:51.279Z,90.88
2019-03-11T18:30:37.770Z,90.36
2019-03-11T18:33:24.405Z,90.14
2019-03-11T18:36:11.554Z,89.88
2019-03-11T18:38:58.772Z,89.24
2019-03-11T18:41:46.059Z,89.23
2019-03-11T18:44:35.462Z,89.23
2019-03-11T18:47:21.858Z,89.21
2019-03-11T18:50:10.478Z,89.28
2019-03-11T18:52:57.477Z,88.86
2019-03-11T18:55:44.116Z,88.98
2019-03-11T18:58:31.715Z,89.20
2019-03-11T19:01:26.289Z,89.14
2019-03-11T19:04:13.528Z,88.91
2019-03-11T19:07:02.475Z,88.72
2019-03-11T19:09:51.077Z,88.84
2019-03-11T19:12:37.561Z,88.82
2019-03-11T19:15:24.106Z,88.88
2019-03-11T19:18:10.870Z,89.03
2019-03-11T19:20:58.821Z,88.82
2019-03-11T19:23:46.565Z,88.60
2019-03-11T19:26:38.883Z,88.46
2019-03-11T19:29:26.690Z,87.80
2019-03-11T19:32:13.626Z,87.95
2019-03-11T19:34:59.942Z,88.46
2019-03-11T19:37:47.295Z,88.74
2019-03-11T19:40:39.903Z,88.38
2019-03-11T19:43:29.227Z,88.71
2019-03-11T19:46:16.137Z,88.35
2019-03-11T19:49:03.598Z,87.91
2019-03-11T19:51:49.914Z,88.26
2019-03-11T19:54:36.448Z,87.85
2019-03-11T19:57:23.669Z,88.14
2019-03-11T20:00:13.616Z,87.98
2019-03-11T20:02:59.950Z,88.02
2019-03-11T20:05:47.403Z,88.03
2019-03-11T20:08:34.258Z,88.42
2019-03-11T20:11:21.359Z,88.42
2019-03-11T20:14:12.070Z,88.39
2019-03-11T20:16:59.043Z,88.60
2019-03-11T20:19:49.810Z,88.79
2019-03-11T20:22:36.873Z,88.79
2019-03-11T20:25:26.717Z,89.18
2019-03-11T20:28:13.346Z,89.14
2019-03-11T20:31:00.916Z,89.67
2019-03-11T20:33:50.443Z,89.60
2019-03-11T20:36:40.117Z,89.68
2019-03-11T20:39:30.119Z,89.46
2019-03-11T20:42:17.243Z,89.09
2019-03-11T20:45:07.826Z,89.46
2019-03-11T20:47:54.478Z,89.27
2019-03-11T20:50:44.394Z,89.22
2019-03-11T20:53:33.445Z,89.15
2019-03-11T20:56:20.678Z,89.34
2019-03-11T20:59:07.694Z,89.28
2019-03-11T21:01:57.869Z,89.64
2019-03-11T21:04:48.493Z,90.02
2019-03-11T21:07:43.950Z,90.28
2019-03-11T21:10:30.978Z,90.35
2019-03-11T21:13:23.875Z,90.51
2019-03-11T21:16:10.645Z,90.47
2019-03-11T21:18:57.486Z,90.71
2019-03-11T21:21:44.371Z,90.71
2019-03-11T21:24:33.399Z,90.59
2019-03-11T21:27:20.228Z,90.09
2019-03-11T21:30:10.963Z,90.26
2019-03-11T21:32:58.673Z,89.72
2019-03-11T21:35:45.255Z,89.64
2019-03-11T21:38:31.929Z,89.86
2019-03-11T21:41:23.032Z,89.64
2019-03-11T21:44:09.791Z,89.55
2019-03-11T21:46:59.670Z,89.85
2019-03-11T21:49:46.314Z,89.70
2019-03-11T21:52:32.905Z,89.30
2019-03-11T21:55:19.757Z,89.54
2019-03-11T21:58:13.188Z,89.50
2019-03-11T22:00:54.705Z,89.53
2019-03-11T22:03:41.615Z,89.39
2019-03-11T22:06:30.764Z,89.36
2019-03-11T22:09:16.832Z,89.23
2019-03-11T22:12:03.738Z,89.12
2019-03-11T22:14:51.712Z,89.14
2019-03-11T22:17:41.445Z,88.84
2019-03-11T22:20:28.625Z,88.87
2019-03-11T22:23:15.331Z,89.21
2019-03-11T22:26:01.957Z,89.10
2019-03-11T22:28:48.772Z,89.06
2019-03-11T22:31:35.642Z,89.15
2019-03-11T22:34:22.110Z,89.35
2019-03-11T22:37:09.602Z,89.47
2019-03-11T22:39:56.281Z,90.01
2019-03-11T22:42:43.638Z,90.39
2019-03-11T22:45:30.764Z,90.18
2019-03-11T22:48:17.328Z,90.41
2019-03-11T22:51:03.964Z,90.15
2019-03-11T22:53:53.009Z,89.89
2019-03-11T22:56:39.311Z,89.86
2019-03-11T22:59:25.991Z,89.92
2019-03-11T23:02:14.301Z,89.24
2019-03-11T23:05:00.995Z,89.22
2019-03-11T23:07:47.627Z,89.73
2019-03-11T23:10:41.721Z,89.65
2019-03-11T23:13:31.463Z,89.54
2019-03-11T23:16:20.091Z,89.61
2019-03-11T23:19:10.119Z,89.70
2019-03-11T23:21:59.667Z,89.65
2019-03-11T23:24:46.299Z,89.66
2019-03-11T23:27:35.206Z,89.29
2019-03-11T23:30:21.699Z,89.22
2019-03-11T23:33:08.607Z,89.03
2019-03-11T23:35:56.707Z,89.13
2019-03-11T23:38:43.223Z,89.22
2019-03-11T23:41:30.012Z,89.52
2019-03-11T23:44:17.449Z,89.79
2019-03-11T23:47:03.983Z,89.76
2019-03-11T23:49:50.591Z,89.48
2019-03-11T23:52:37.334Z,89.27
2019-03-11T23:55:23.738Z,89.21
2019-03-11T23:58:10.775Z,89.55
